createdAt,value
2022-08-31T00:01:26.676Z,10.10
2022-08-31T00:04:00.666Z,5.18
2022-08-31T00:06:28.721Z,7.10
2022-08-31T00:08:58.099Z,6.45
2022-08-31T00:11:30.637Z,6.10
2022-08-31T00:14:01.522Z,5.35
2022-08-31T00:16:34.096Z,4.97
2022-08-31T00:19:03.130Z,7.72
2022-08-31T00:21:31.541Z,6.63
2022-08-31T00:24:01.091Z,5.78
2022-08-31T00:26:29.006Z,13.02
2022-08-31T00:28:56.899Z,5.78
2022-08-31T00:31:24.839Z,8.63
2022-08-31T00:33:53.195Z,10.30
2022-08-31T00:36:23.722Z,8.00
2022-08-31T00:38:52.409Z,15.30
2022-08-31T00:41:25.449Z,15.73
2022-08-31T00:43:56.324Z,10.10
2022-08-31T00:46:26.678Z,19.75
2022-08-31T00:49:02.878Z,21.75
2022-08-31T00:51:33.325Z,24.55
2022-08-31T00:54:01.794Z,15.88
2022-08-31T00:56:31.407Z,22.48
2022-08-31T00:59:01.024Z,12.38
2022-08-31T01:01:30.806Z,19.15
2022-08-31T01:03:59.488Z,18.08
2022-08-31T01:06:28.202Z,18.48
2022-08-31T01:08:58.337Z,13.93
2022-08-31T01:11:26.713Z,19.15
2022-08-31T01:13:56.384Z,15.70
2022-08-31T01:16:29.201Z,22.45
2022-08-31T01:18:59.377Z,20.23
2022-08-31T01:21:31.062Z,21.50
2022-08-31T01:24:02.896Z,18.95
2022-08-31T01:26:32.808Z,24.45
2022-08-31T01:29:05.221Z,22.75
2022-08-31T01:31:35.500Z,24.60
2022-08-31T01:34:05.315Z,28.48
2022-08-31T01:36:35.262Z,23.65
2022-08-31T01:39:04.986Z,18.08
2022-08-31T01:41:33.113Z,60.38
2022-08-31T01:44:01.029Z,37.03
2022-08-31T01:46:28.984Z,28.60
2022-08-31T01:48:56.956Z,24.52
2022-08-31T01:51:24.858Z,30.88
2022-08-31T01:53:54.413Z,24.27
2022-08-31T01:56:25.812Z,28.10
2022-08-31T01:58:54.106Z,43.28
2022-08-31T02:01:33.759Z,20.60
2022-08-31T02:04:03.046Z,23.85
2022-08-31T02:06:31.089Z,29.40
2022-08-31T02:08:59.087Z,18.75
2022-08-31T02:11:28.298Z,29.95
2022-08-31T02:13:56.206Z,23.65
2022-08-31T02:16:24.710Z,22.60
2022-08-31T02:18:52.864Z,19.30
2022-08-31T02:21:20.893Z,18.70
2022-08-31T02:23:48.786Z,19.75
2022-08-31T02:26:17.174Z,23.05
2022-08-31T02:28:46.622Z,23.67
2022-08-31T02:31:15.004Z,32.97
2022-08-31T02:33:43.075Z,27.58
2022-08-31T02:36:11.250Z,21.52
2022-08-31T02:38:39.701Z,20.80
2022-08-31T02:41:07.961Z,21.60
2022-08-31T02:43:35.969Z,22.73
2022-08-31T02:46:05.413Z,28.75
2022-08-31T02:48:33.286Z,25.80
2022-08-31T02:51:05.823Z,20.30
2022-08-31T02:53:34.037Z,20.80
2022-08-31T02:56:02.197Z,23.15
2022-08-31T02:58:30.175Z,15.45
2022-08-31T03:00:59.162Z,16.38
2022-08-31T03:03:28.540Z,21.98
2022-08-31T03:05:56.421Z,17.95
2022-08-31T03:08:24.343Z,19.20
2022-08-31T03:10:52.502Z,20.13
2022-08-31T03:13:20.611Z,20.00
2022-08-31T03:15:48.904Z,21.55
2022-08-31T03:18:16.879Z,25.08
2022-08-31T03:20:46.223Z,18.85
2022-08-31T03:23:15.303Z,31.50
2022-08-31T03:25:43.198Z,19.70
2022-08-31T03:28:11.997Z,21.73
2022-08-31T03:30:41.147Z,23.52
2022-08-31T03:33:09.963Z,28.77
2022-08-31T03:35:38.367Z,24.20
2022-08-31T03:38:08.597Z,17.90
2022-08-31T03:40:36.669Z,23.20
2022-08-31T03:43:04.985Z,20.05
2022-08-31T03:45:35.006Z,20.00
2022-08-31T03:48:10.004Z,19.75
2022-08-31T03:50:40.378Z,16.10
2022-08-31T03:53:10.699Z,18.08
2022-08-31T03:55:41.651Z,17.17
2022-08-31T03:58:09.970Z,14.65
2022-08-31T04:00:38.382Z,29.92
2022-08-31T04:03:06.720Z,17.88
2022-08-31T04:05:36.805Z,25.75
2022-08-31T04:08:05.016Z,21.67
2022-08-31T04:10:34.239Z,24.58
2022-08-31T04:13:02.065Z,20.50
2022-08-31T04:15:30.068Z,20.40
2022-08-31T04:17:58.051Z,20.27
2022-08-31T04:20:30.111Z,25.65
2022-08-31T04:22:58.168Z,27.35
2022-08-31T04:25:26.038Z,23.88
2022-08-31T04:27:56.697Z,17.20
2022-08-31T04:30:26.430Z,18.98
2022-08-31T04:32:54.671Z,19.23
2022-08-31T04:35:22.615Z,24.77
2022-08-31T04:37:50.491Z,18.70
2022-08-31T04:40:19.646Z,18.27
2022-08-31T04:42:48.769Z,16.23
2022-08-31T04:45:18.398Z,12.82
2022-08-31T04:47:46.243Z,13.38
2022-08-31T04:50:16.541Z,12.80
2022-08-31T04:52:45.058Z,13.02
2022-08-31T04:55:31.359Z,18.00
2022-08-31T04:57:59.214Z,16.30
2022-08-31T05:00:28.480Z,14.30
2022-08-31T05:02:56.351Z,16.00
2022-08-31T05:05:24.302Z,18.73
2022-08-31T05:07:52.251Z,19.45
2022-08-31T05:10:21.658Z,23.85
2022-08-31T05:12:51.707Z,18.27
2022-08-31T05:15:19.656Z,16.33
2022-08-31T05:17:48.865Z,20.38
2022-08-31T05:20:17.082Z,18.52
2022-08-31T05:22:44.943Z,15.60
2022-08-31T05:25:12.925Z,13.52
2022-08-31T05:27:42.037Z,19.92
2022-08-31T05:30:11.238Z,19.13
2022-08-31T05:32:39.203Z,17.23
2022-08-31T05:35:09.231Z,16.95
2022-08-31T05:37:37.123Z,16.02
2022-08-31T05:40:06.061Z,17.63
2022-08-31T05:42:34.098Z,15.90
2022-08-31T05:45:02.132Z,17.65
2022-08-31T05:47:30.123Z,14.98
2022-08-31T05:49:57.993Z,17.30
2022-08-31T05:52:27.181Z,17.13
2022-08-31T05:54:55.498Z,14.48
2022-08-31T05:57:26.554Z,16.00
2022-08-31T05:59:54.894Z,17.60
2022-08-31T06:02:22.855Z,19.95
2022-08-31T06:04:57.696Z,23.17
2022-08-31T06:07:27.059Z,16.92
2022-08-31T06:09:55.134Z,16.60
2022-08-31T06:12:25.631Z,15.18
2022-08-31T06:14:53.708Z,14.02
2022-08-31T06:17:21.616Z,14.32
2022-08-31T06:19:50.064Z,11.80
2022-08-31T06:22:20.019Z,11.43
2022-08-31T06:24:49.239Z,14.18
2022-08-31T06:27:17.418Z,20.77
2022-08-31T06:29:45.459Z,12.25
2022-08-31T06:32:15.632Z,12.95
2022-08-31T06:34:43.909Z,10.70
2022-08-31T06:37:18.258Z,19.83
2022-08-31T06:39:47.778Z,13.98
2022-08-31T06:42:17.410Z,11.02
2022-08-31T06:44:45.573Z,11.10
2022-08-31T06:47:13.451Z,13.82
2022-08-31T06:49:41.414Z,12.25
2022-08-31T06:52:09.396Z,10.40
2022-08-31T06:54:37.322Z,12.50
2022-08-31T06:57:05.417Z,14.05
2022-08-31T06:59:34.649Z,18.23
2022-08-31T07:02:03.225Z,13.65
2022-08-31T07:04:33.881Z,16.85
2022-08-31T07:07:01.849Z,13.32
2022-08-31T07:09:30.042Z,19.48
2022-08-31T07:11:57.910Z,14.90
2022-08-31T07:14:27.766Z,16.08
2022-08-31T07:16:58.834Z,22.65
2022-08-31T07:19:27.951Z,18.88
2022-08-31T07:21:58.207Z,18.65
2022-08-31T07:24:30.242Z,16.65
2022-08-31T07:27:00.588Z,21.65
2022-08-31T07:29:31.656Z,15.38
2022-08-31T07:32:01.091Z,16.55
2022-08-31T07:34:31.952Z,18.80
2022-08-31T07:37:19.545Z,17.33
2022-08-31T07:40:08.169Z,17.80
2022-08-31T07:47:35.802Z,16.80
2022-08-31T07:50:03.722Z,20.92
2022-08-31T07:52:32.941Z,14.52
2022-08-31T07:55:07.760Z,13.98
2022-08-31T07:57:37.812Z,16.20
2022-08-31T08:00:09.326Z,16.52
2022-08-31T08:02:40.060Z,17.27
2022-08-31T08:05:10.131Z,17.35
2022-08-31T08:07:40.415Z,18.35
2022-08-31T08:10:14.360Z,19.17
2022-08-31T08:12:42.805Z,18.10
2022-08-31T08:15:11.882Z,17.23
2022-08-31T08:17:41.103Z,13.85
2022-08-31T08:20:13.808Z,17.40
2022-08-31T08:22:53.996Z,29.25
2022-08-31T08:25:25.937Z,18.23
2022-08-31T08:27:55.182Z,19.15
2022-08-31T08:30:24.220Z,18.33
2022-08-31T08:32:53.458Z,13.90
2022-08-31T08:35:21.848Z,17.65
2022-08-31T08:38:00.577Z,15.65
2022-08-31T08:40:37.228Z,13.40
2022-08-31T08:43:06.068Z,15.20
2022-08-31T08:45:34.979Z,19.23
2022-08-31T08:48:11.211Z,19.83
2022-08-31T08:50:41.093Z,18.50
2022-08-31T08:53:12.640Z,13.93
2022-08-31T08:55:43.029Z,19.40
2022-08-31T08:58:13.493Z,17.58
2022-08-31T09:00:46.616Z,14.07
2022-08-31T09:03:24.301Z,14.07
2022-08-31T09:06:02.866Z,18.30
2022-08-31T09:11:17.737Z,17.07
2022-08-31T09:13:53.427Z,13.80
2022-08-31T09:16:35.078Z,15.68
2022-08-31T09:19:08.416Z,17.92
2022-08-31T09:21:39.812Z,17.92
2022-08-31T09:24:11.363Z,15.32
2022-08-31T09:26:55.374Z,16.05
2022-08-31T09:29:24.920Z,15.65
2022-08-31T09:32:06.148Z,14.13
2022-08-31T09:34:38.555Z,22.45
2022-08-31T09:37:16.377Z,16.00
2022-08-31T09:39:48.709Z,15.18
2022-08-31T09:42:30.927Z,12.88
2022-08-31T09:45:01.051Z,12.52
2022-08-31T09:47:51.057Z,16.83
2022-08-31T09:50:31.613Z,14.65
2022-08-31T09:53:41.330Z,14.93
2022-08-31T09:56:15.603Z,16.17
2022-08-31T09:58:50.770Z,16.48
2022-08-31T10:01:23.643Z,17.38
2022-08-31T10:03:52.874Z,22.05
2022-08-31T10:06:45.550Z,16.20
2022-08-31T10:09:33.087Z,21.02
2022-08-31T10:12:05.392Z,15.13
2022-08-31T10:14:41.680Z,20.08
2022-08-31T10:17:15.137Z,19.60
2022-08-31T10:19:56.395Z,17.25
2022-08-31T10:22:32.483Z,17.42
2022-08-31T10:25:17.240Z,24.55
2022-08-31T10:27:48.647Z,24.33
2022-08-31T10:30:35.730Z,22.52
2022-08-31T10:33:12.071Z,19.13
2022-08-31T10:35:50.417Z,18.88
2022-08-31T10:38:26.413Z,22.83
2022-08-31T10:41:06.606Z,19.77
2022-08-31T10:43:40.234Z,23.95
2022-08-31T10:46:08.205Z,23.38
2022-08-31T10:48:37.227Z,22.73
2022-08-31T10:51:18.078Z,19.95
2022-08-31T10:53:57.837Z,20.10
2022-08-31T10:56:41.297Z,20.60
2022-08-31T10:59:21.971Z,20.50
2022-08-31T11:01:58.078Z,19.15
2022-08-31T11:04:52.937Z,13.98
2022-08-31T11:07:32.923Z,16.17
2022-08-31T11:10:16.513Z,21.40
2022-08-31T11:12:52.107Z,17.55
2022-08-31T11:15:45.347Z,24.90
2022-08-31T11:18:50.680Z,16.30
2022-08-31T11:21:45.550Z,18.80
2022-08-31T11:24:39.067Z,21.10
2022-08-31T11:27:14.435Z,16.65
2022-08-31T11:29:56.823Z,18.02
2022-08-31T11:32:30.680Z,18.90
2022-08-31T11:35:03.949Z,18.73
2022-08-31T11:37:52.447Z,15.07
2022-08-31T11:41:11.135Z,19.88
2022-08-31T11:43:51.937Z,18.65
2022-08-31T11:46:43.116Z,17.50
2022-08-31T11:49:34.565Z,20.75
2022-08-31T11:52:10.040Z,19.52
2022-08-31T11:55:02.889Z,17.88
2022-08-31T11:57:37.039Z,22.67
2022-08-31T12:00:19.631Z,16.00
2022-08-31T12:03:04.456Z,15.95
2022-08-31T12:05:57.721Z,19.75
2022-08-31T12:08:28.470Z,16.23
2022-08-31T12:11:03.098Z,17.73
2022-08-31T12:13:40.013Z,13.48
2022-08-31T12:16:38.008Z,16.27
2022-08-31T12:19:43.169Z,14.95
2022-08-31T12:22:47.789Z,13.88
2022-08-31T12:25:23.434Z,14.55
2022-08-31T12:28:03.490Z,15.90
2022-08-31T12:30:31.487Z,15.45
2022-08-31T12:33:05.530Z,20.98
2022-08-31T12:35:34.727Z,17.65
2022-08-31T12:38:05.120Z,19.38
2022-08-31T12:40:35.697Z,19.13
2022-08-31T12:43:09.136Z,18.60
2022-08-31T12:46:04.650Z,21.85
2022-08-31T12:48:46.825Z,17.67
2022-08-31T12:51:22.951Z,17.60
2022-08-31T12:54:09.819Z,16.45
2022-08-31T12:56:45.381Z,14.35
2022-08-31T12:59:45.655Z,15.05
2022-08-31T13:02:16.509Z,17.00
2022-08-31T13:04:47.377Z,14.18
2022-08-31T13:07:19.046Z,13.20
2022-08-31T13:09:47.070Z,13.73
2022-08-31T13:12:24.480Z,13.65
2022-08-31T13:14:52.380Z,19.10
2022-08-31T13:17:22.509Z,13.80
2022-08-31T13:19:54.395Z,13.95
2022-08-31T13:22:29.541Z,14.85
2022-08-31T13:25:25.598Z,16.15
2022-08-31T13:27:53.829Z,17.73
2022-08-31T13:30:25.426Z,14.07
2022-08-31T13:32:54.564Z,12.90
2022-08-31T13:35:28.321Z,22.25
2022-08-31T13:38:04.402Z,16.38
2022-08-31T13:40:37.192Z,16.42
2022-08-31T13:43:08.208Z,15.57
2022-08-31T13:45:40.442Z,13.68
2022-08-31T13:48:14.663Z,13.70
2022-08-31T13:50:52.587Z,15.55
2022-08-31T13:53:39.622Z,14.05
2022-08-31T13:56:39.061Z,15.85
2022-08-31T13:59:29.415Z,19.75
2022-08-31T14:01:59.375Z,18.00
2022-08-31T14:04:44.531Z,13.73
2022-08-31T14:07:20.082Z,14.10
2022-08-31T14:09:49.472Z,13.80
2022-08-31T14:12:34.848Z,17.98
2022-08-31T14:15:18.400Z,15.90
2022-08-31T14:20:53.424Z,14.07
2022-08-31T14:23:34.730Z,13.27
2022-08-31T14:26:05.528Z,15.57
2022-08-31T14:28:43.931Z,15.98
2022-08-31T14:31:22.879Z,14.98
2022-08-31T14:34:08.031Z,17.65
2022-08-31T14:36:43.639Z,15.68
2022-08-31T14:39:12.876Z,15.90
2022-08-31T14:41:40.810Z,18.52
2022-08-31T14:44:09.444Z,11.88
2022-08-31T14:46:39.280Z,11.60
2022-08-31T14:49:08.280Z,16.27
2022-08-31T14:51:39.142Z,20.52
2022-08-31T14:54:08.924Z,14.50
2022-08-31T14:56:46.786Z,15.60
2022-08-31T14:59:16.180Z,14.70
2022-08-31T15:01:45.496Z,11.90
2022-08-31T15:04:14.961Z,20.38
2022-08-31T15:06:43.217Z,11.85
2022-08-31T15:09:11.342Z,19.05
2022-08-31T15:11:41.040Z,11.45
2022-08-31T15:14:12.375Z,14.65
2022-08-31T15:16:42.279Z,15.20
2022-08-31T15:19:12.053Z,14.50
2022-08-31T15:21:52.189Z,12.95
2022-08-31T15:24:21.859Z,16.92
2022-08-31T15:26:53.251Z,13.43
2022-08-31T15:29:24.650Z,14.40
2022-08-31T15:31:55.046Z,12.65
2022-08-31T15:34:25.407Z,19.42
2022-08-31T15:36:56.100Z,14.50
2022-08-31T15:39:24.656Z,12.27
2022-08-31T15:41:54.113Z,12.88
2022-08-31T15:44:22.487Z,13.63
2022-08-31T15:47:08.015Z,12.88
2022-08-31T15:49:38.591Z,18.30
2022-08-31T15:52:08.822Z,16.10
2022-08-31T15:54:40.547Z,13.68
2022-08-31T15:57:11.354Z,11.77
2022-08-31T15:59:43.641Z,11.48
2022-08-31T16:02:14.040Z,13.05
2022-08-31T16:04:43.486Z,13.00
2022-08-31T16:07:12.437Z,11.23
2022-08-31T16:09:44.755Z,15.50
2022-08-31T16:12:16.058Z,14.18
2022-08-31T16:14:45.314Z,15.02
2022-08-31T16:17:19.360Z,11.23
2022-08-31T16:19:47.682Z,12.88
2022-08-31T16:22:16.436Z,14.30
2022-08-31T16:24:44.785Z,13.32
2022-08-31T16:27:16.626Z,7.72
2022-08-31T16:29:45.743Z,8.50
2022-08-31T16:32:14.122Z,7.50
2022-08-31T16:34:42.763Z,8.75
2022-08-31T16:37:11.197Z,9.80
2022-08-31T16:39:41.516Z,8.45
2022-08-31T16:42:12.161Z,13.70
2022-08-31T16:44:43.781Z,11.23
2022-08-31T16:47:12.554Z,10.43
2022-08-31T16:49:41.299Z,8.82
2022-08-31T16:52:11.453Z,10.05
2022-08-31T16:54:42.249Z,9.57
2022-08-31T16:57:10.822Z,12.10
2022-08-31T16:59:39.709Z,14.82
2022-08-31T17:02:09.867Z,15.77
2022-08-31T17:04:52.161Z,11.70
2022-08-31T17:07:21.669Z,10.48
2022-08-31T17:09:49.920Z,11.52
2022-08-31T17:12:21.688Z,10.13
2022-08-31T17:14:52.705Z,9.50
2022-08-31T17:17:24.983Z,10.35
2022-08-31T17:19:54.205Z,7.72
2022-08-31T17:22:31.884Z,9.68
2022-08-31T17:25:03.782Z,10.85
2022-08-31T17:27:34.104Z,10.27
2022-08-31T17:30:06.088Z,12.10
2022-08-31T17:32:42.616Z,9.25
2022-08-31T17:35:18.292Z,10.95
2022-08-31T17:37:50.871Z,11.10
2022-08-31T17:40:19.378Z,11.50
2022-08-31T17:42:48.550Z,8.93
2022-08-31T17:45:17.541Z,9.60
2022-08-31T17:47:46.847Z,11.70
2022-08-31T17:50:17.743Z,10.98
2022-08-31T17:52:47.474Z,12.20
2022-08-31T17:55:15.692Z,14.75
2022-08-31T17:57:44.222Z,12.18
2022-08-31T18:00:14.667Z,15.18
2022-08-31T18:02:42.670Z,21.58
2022-08-31T18:05:15.585Z,14.82
2022-08-31T18:07:43.625Z,16.25
2022-08-31T18:10:12.632Z,19.13
2022-08-31T18:12:42.025Z,17.55
2022-08-31T18:15:11.869Z,19.20
2022-08-31T18:17:40.654Z,16.33
2022-08-31T18:20:10.712Z,16.23
2022-08-31T18:22:40.996Z,20.98
2022-08-31T18:25:09.849Z,17.85
2022-08-31T18:27:37.840Z,17.67
2022-08-31T18:30:07.195Z,21.15
2022-08-31T18:32:36.960Z,17.23
2022-08-31T18:35:11.292Z,17.02
2022-08-31T18:37:40.932Z,19.58
2022-08-31T18:40:28.222Z,21.50
2022-08-31T18:43:14.872Z,23.05
2022-08-31T18:45:43.015Z,23.23
2022-08-31T18:48:34.993Z,17.10
2022-08-31T18:51:03.089Z,19.00
2022-08-31T18:53:34.657Z,24.90
2022-08-31T18:56:08.189Z,19.95
2022-08-31T18:58:36.794Z,22.85
2022-08-31T19:01:10.344Z,24.58
2022-08-31T19:03:39.420Z,24.08
2022-08-31T19:06:08.194Z,32.83
2022-08-31T19:08:37.635Z,24.42
2022-08-31T19:11:07.655Z,19.63
2022-08-31T19:13:36.092Z,24.30
2022-08-31T19:16:15.024Z,23.85
2022-08-31T19:18:45.045Z,26.20
2022-08-31T19:21:15.304Z,20.98
2022-08-31T19:23:45.163Z,25.60
2022-08-31T19:26:20.209Z,28.00
2022-08-31T19:28:49.619Z,28.55
2022-08-31T19:31:18.869Z,23.70
2022-08-31T19:33:47.364Z,21.27
2022-08-31T19:36:15.974Z,22.65
2022-08-31T19:38:48.374Z,25.92
2022-08-31T19:41:18.266Z,22.20
2022-08-31T19:43:53.569Z,29.40
2022-08-31T19:46:26.485Z,24.10
2022-08-31T19:48:57.459Z,28.15
2022-08-31T19:51:26.440Z,21.05
2022-08-31T19:53:55.834Z,23.88
2022-08-31T19:56:25.791Z,27.05
2022-08-31T19:58:56.632Z,25.00
2022-08-31T20:01:28.198Z,40.22
2022-08-31T20:03:57.169Z,24.00
2022-08-31T20:06:26.339Z,26.63
2022-08-31T20:08:56.010Z,26.52
2022-08-31T20:11:28.348Z,33.30
2022-08-31T20:13:57.324Z,29.92
2022-08-31T20:16:33.372Z,32.33
2022-08-31T20:19:04.686Z,31.77
2022-08-31T20:21:35.041Z,28.05
2022-08-31T20:24:07.642Z,27.20
2022-08-31T20:26:46.171Z,28.45
2022-08-31T20:29:18.132Z,27.27
2022-08-31T20:31:48.927Z,27.67
2022-08-31T20:34:19.516Z,38.35
2022-08-31T20:36:59.963Z,35.17
2022-08-31T20:39:32.252Z,33.88
2022-08-31T20:42:03.373Z,35.70
2022-08-31T20:44:34.893Z,33.90
2022-08-31T20:47:22.875Z,38.03
2022-08-31T20:49:54.604Z,33.60
2022-08-31T20:52:25.769Z,33.85
2022-08-31T20:55:01.384Z,35.67
2022-08-31T20:57:31.888Z,34.53
2022-08-31T21:00:04.832Z,36.95
2022-08-31T21:02:34.271Z,34.60
2022-08-31T21:07:52.205Z,36.92
2022-08-31T21:10:26.068Z,38.33
2022-08-31T21:13:06.930Z,35.10
2022-08-31T21:15:34.996Z,42.95
2022-08-31T21:18:03.037Z,36.45
2022-08-31T21:20:32.671Z,44.95
2022-08-31T21:23:00.515Z,35.00
2022-08-31T21:25:29.828Z,32.45
2022-08-31T21:27:59.923Z,40.78
2022-08-31T21:30:27.794Z,33.35
2022-08-31T21:32:55.613Z,35.58
2022-08-31T21:35:23.522Z,40.35
2022-08-31T21:37:51.381Z,41.92
2022-08-31T21:40:19.479Z,44.40
2022-08-31T21:42:49.452Z,36.90
2022-08-31T21:45:17.574Z,37.58
2022-08-31T21:47:45.455Z,35.33
2022-08-31T21:50:13.545Z,39.35
2022-08-31T21:52:41.418Z,43.78
2022-08-31T21:55:13.325Z,34.45
2022-08-31T21:57:43.256Z,39.72
2022-08-31T22:00:17.120Z,39.45
2022-08-31T22:02:50.891Z,45.40
2022-08-31T22:05:19.062Z,48.25
2022-08-31T22:07:46.997Z,37.58
2022-08-31T22:10:14.937Z,44.20
2022-08-31T22:12:42.834Z,40.10
2022-08-31T22:15:16.649Z,32.88
2022-08-31T22:18:02.355Z,36.63
2022-08-31T22:20:33.457Z,46.78
2022-08-31T22:23:02.579Z,45.08
2022-08-31T22:25:33.382Z,37.85
2022-08-31T22:28:01.846Z,43.22
2022-08-31T22:30:31.082Z,41.53
2022-08-31T22:32:59.027Z,41.28
2022-08-31T22:35:26.902Z,43.42
2022-08-31T22:37:54.774Z,44.22
2022-08-31T22:40:22.687Z,41.05
2022-08-31T22:42:50.957Z,41.17
2022-08-31T22:45:19.131Z,45.85
2022-08-31T22:47:50.165Z,41.10
2022-08-31T22:50:18.503Z,50.55
2022-08-31T22:52:46.633Z,48.05
2022-08-31T22:55:14.523Z,48.85
2022-08-31T22:57:42.463Z,44.55
2022-08-31T23:00:13.121Z,45.53
2022-08-31T23:02:45.124Z,40.97
2022-08-31T23:05:16.349Z,46.55
2022-08-31T23:07:44.492Z,45.30
2022-08-31T23:10:18.467Z,43.95
2022-08-31T23:12:48.160Z,51.58
2022-08-31T23:15:17.186Z,51.38
2022-08-31T23:17:49.865Z,46.90
2022-08-31T23:20:24.381Z,53.15
2022-08-31T23:22:55.009Z,46.33
2022-08-31T23:25:25.000Z,43.17
2022-08-31T23:27:53.336Z,45.65
2022-08-31T23:30:22.539Z,40.53
2022-08-31T23:32:50.977Z,43.03
2022-08-31T23:35:22.018Z,38.28
2022-08-31T23:37:49.944Z,42.67
2022-08-31T23:40:17.929Z,45.13
2022-08-31T23:42:45.953Z,39.72
2022-08-31T23:45:13.889Z,38.83
2022-08-31T23:47:41.829Z,42.13
2022-08-31T23:50:10.656Z,43.08
2022-08-31T23:52:43.561Z,42.28
2022-08-31T23:55:12.394Z,35.50
2022-08-31T23:57:41.798Z,51.00
